createdAt,value
2023-07-19T00:01:48.097Z,8.20
2023-07-19T00:04:16.274Z,8.20
2023-07-19T00:06:44.379Z,8.20
2023-07-19T00:09:12.444Z,8.30
2023-07-19T00:11:41.919Z,8.30
2023-07-19T00:14:10.021Z,8.50
2023-07-19T00:16:38.232Z,8.60
2023-07-19T00:19:19.367Z,8.60
2023-07-19T00:21:49.501Z,8.50
2023-07-19T00:24:17.878Z,8.60
2023-07-19T00:26:47.797Z,8.60
2023-07-19T00:29:15.990Z,8.50
2023-07-19T00:31:44.946Z,8.50
2023-07-19T00:34:14.134Z,8.50
2023-07-19T00:36:43.643Z,8.50
2023-07-19T00:39:13.162Z,8.50
2023-07-19T00:41:41.644Z,8.50
2023-07-19T00:44:11.116Z,8.50
2023-07-19T00:46:40.190Z,8.50
2023-07-19T00:49:09.139Z,8.50
2023-07-19T00:51:37.680Z,8.50
2023-07-19T00:54:08.025Z,8.50
2023-07-19T00:56:36.153Z,8.60
2023-07-19T00:59:06.335Z,8.60
2023-07-19T01:01:36.991Z,8.60
2023-07-19T01:04:07.643Z,8.70
2023-07-19T01:06:35.838Z,8.60
2023-07-19T01:09:04.286Z,8.60
2023-07-19T01:11:32.478Z,8.60
2023-07-19T01:14:00.547Z,8.50
2023-07-19T01:16:28.814Z,8.50
2023-07-19T01:18:58.329Z,8.50
2023-07-19T01:21:29.244Z,8.50
2023-07-19T01:23:59.861Z,8.60
2023-07-19T01:26:27.986Z,8.70
2023-07-19T01:28:58.216Z,8.80
2023-07-19T01:31:26.392Z,8.90
2023-07-19T01:33:54.480Z,8.90
2023-07-19T01:36:22.607Z,9.00
2023-07-19T01:38:50.713Z,9.00
2023-07-19T01:41:20.513Z,9.10
2023-07-19T01:43:48.878Z,9.20
2023-07-19T01:46:18.206Z,9.20
2023-07-19T01:48:46.453Z,9.30
2023-07-19T01:51:14.544Z,9.40
2023-07-19T01:53:42.662Z,9.30
2023-07-19T01:56:10.929Z,9.30
2023-07-19T01:58:40.424Z,9.20
2023-07-19T02:01:08.683Z,9.10
2023-07-19T02:03:36.939Z,8.90
2023-07-19T02:06:05.316Z,8.70
2023-07-19T02:08:33.478Z,8.60
2023-07-19T02:11:02.320Z,8.50
2023-07-19T02:13:30.506Z,8.50
2023-07-19T02:16:00.027Z,8.50
2023-07-19T02:18:28.232Z,8.60
2023-07-19T02:20:56.475Z,8.60
2023-07-19T02:23:25.676Z,8.50
2023-07-19T02:25:53.792Z,8.50
2023-07-19T02:28:22.404Z,8.60
2023-07-19T02:30:50.564Z,8.60
2023-07-19T02:33:20.107Z,8.60
2023-07-19T02:35:54.943Z,8.60
2023-07-19T02:38:23.070Z,8.60
2023-07-19T02:40:51.184Z,8.60
2023-07-19T02:43:19.276Z,8.60
2023-07-19T02:45:47.381Z,8.70
2023-07-19T02:48:15.903Z,8.70
2023-07-19T02:50:48.078Z,8.80
2023-07-19T02:53:16.562Z,8.90
2023-07-19T02:55:45.428Z,9.00
2023-07-19T02:58:13.813Z,9.20
2023-07-19T03:00:42.610Z,9.30
2023-07-19T03:03:12.142Z,9.40
2023-07-19T03:05:41.264Z,9.50
2023-07-19T03:08:12.411Z,9.60
2023-07-19T03:10:41.196Z,9.80
2023-07-19T03:13:10.297Z,9.80
2023-07-19T03:15:38.665Z,9.90
2023-07-19T03:18:06.990Z,10.10
2023-07-19T03:20:36.262Z,10.30
2023-07-19T03:23:04.471Z,10.30
2023-07-19T03:25:34.468Z,10.40
2023-07-19T03:28:02.757Z,10.60
2023-07-19T03:30:30.996Z,10.90
2023-07-19T03:33:00.944Z,11.00
2023-07-19T03:35:29.205Z,11.30
2023-07-19T03:37:57.556Z,11.30
2023-07-19T03:40:26.654Z,12.00
2023-07-19T03:42:56.560Z,12.40
2023-07-19T03:45:26.569Z,12.60
2023-07-19T03:47:55.094Z,12.60
2023-07-19T03:50:26.672Z,12.60
2023-07-19T03:52:54.915Z,12.30
2023-07-19T03:55:23.519Z,12.20
2023-07-19T03:57:51.797Z,12.20
2023-07-19T04:00:22.737Z,12.20
2023-07-19T04:02:51.588Z,12.10
2023-07-19T04:05:19.994Z,11.70
2023-07-19T04:07:48.291Z,11.60
2023-07-19T04:10:16.430Z,11.50
2023-07-19T04:12:44.566Z,11.40
2023-07-19T04:15:13.512Z,11.40
2023-07-19T04:17:43.004Z,11.50
2023-07-19T04:20:12.688Z,11.30
2023-07-19T04:22:41.603Z,11.20
2023-07-19T04:25:10.886Z,11.10
2023-07-19T04:27:38.988Z,11.10
2023-07-19T04:30:08.797Z,11.10
2023-07-19T04:32:37.028Z,11.10
2023-07-19T04:35:08.205Z,11.20
2023-07-19T04:37:39.291Z,11.40
2023-07-19T04:40:10.008Z,11.40
2023-07-19T04:42:40.568Z,11.70
2023-07-19T04:45:10.512Z,11.70
2023-07-19T04:47:39.695Z,11.80
2023-07-19T04:50:11.437Z,11.80
2023-07-19T04:52:40.229Z,11.80
2023-07-19T04:55:09.695Z,11.90
2023-07-19T04:57:38.232Z,12.00
2023-07-19T05:00:12.750Z,12.00
2023-07-19T05:02:41.075Z,12.00
2023-07-19T05:05:13.537Z,11.90
2023-07-19T05:07:42.139Z,12.00
2023-07-19T05:10:11.248Z,12.10
2023-07-19T05:12:39.985Z,12.00
2023-07-19T05:15:09.115Z,11.80
2023-07-19T05:17:37.401Z,11.60
2023-07-19T05:20:07.978Z,11.50
2023-07-19T05:22:38.204Z,11.40
2023-07-19T05:25:07.243Z,11.50
2023-07-19T05:27:35.387Z,11.60
2023-07-19T05:30:04.367Z,11.60
2023-07-19T05:32:32.472Z,11.60
2023-07-19T05:35:00.758Z,11.70
2023-07-19T05:37:29.688Z,11.80
2023-07-19T05:39:59.315Z,11.90
2023-07-19T05:42:27.478Z,11.90
2023-07-19T05:44:55.626Z,11.90
2023-07-19T05:47:23.744Z,12.30
2023-07-19T05:49:51.943Z,12.60
2023-07-19T05:52:20.086Z,12.80
2023-07-19T05:54:49.246Z,12.90
2023-07-19T05:57:18.985Z,12.90
2023-07-19T05:59:47.107Z,13.00
2023-07-19T06:02:15.274Z,13.30
2023-07-19T06:04:44.060Z,13.40
2023-07-19T06:07:12.696Z,13.40
2023-07-19T06:09:40.863Z,13.50
2023-07-19T06:12:09.747Z,13.50
2023-07-19T06:14:39.201Z,13.50
2023-07-19T06:17:07.864Z,13.80
2023-07-19T06:19:35.930Z,13.90
2023-07-19T06:22:04.206Z,14.10
2023-07-19T06:24:32.346Z,14.20
2023-07-19T06:27:00.455Z,14.10
2023-07-19T06:29:28.513Z,14.10
2023-07-19T06:31:57.959Z,14.10
2023-07-19T06:34:26.461Z,14.00
2023-07-19T06:36:54.615Z,14.00
2023-07-19T06:39:22.724Z,14.10
2023-07-19T06:41:50.779Z,14.10
2023-07-19T06:44:19.249Z,14.20
2023-07-19T06:46:47.333Z,13.90
2023-07-19T06:49:17.037Z,13.90
2023-07-19T06:51:45.281Z,13.60
2023-07-19T06:54:15.780Z,13.40
2023-07-19T06:56:44.725Z,13.40
2023-07-19T06:59:12.994Z,13.30
2023-07-19T07:01:41.187Z,13.30
2023-07-19T07:04:10.024Z,13.10
2023-07-19T07:06:39.657Z,13.20
2023-07-19T07:09:08.323Z,13.30
2023-07-19T07:11:36.500Z,13.50
2023-07-19T07:14:04.628Z,13.70
2023-07-19T07:16:32.817Z,13.80
2023-07-19T07:19:01.035Z,13.70
2023-07-19T07:21:29.120Z,13.80
2023-07-19T07:23:58.534Z,13.70
2023-07-19T07:26:26.770Z,13.80
2023-07-19T07:28:54.890Z,13.90
2023-07-19T07:31:23.390Z,13.90
2023-07-19T07:33:51.742Z,14.00
2023-07-19T07:36:19.801Z,14.00
2023-07-19T07:38:51.167Z,14.20
2023-07-19T07:41:20.881Z,14.50
2023-07-19T07:43:49.228Z,14.70
2023-07-19T07:46:17.389Z,14.50
2023-07-19T07:48:45.631Z,14.50
2023-07-19T07:51:13.926Z,14.50
2023-07-19T07:53:42.029Z,14.50
2023-07-19T07:56:10.119Z,14.60
2023-07-19T07:58:39.610Z,14.40
2023-07-19T08:01:07.715Z,14.40
2023-07-19T08:03:35.938Z,14.40
2023-07-19T08:06:05.529Z,14.40
2023-07-19T08:08:33.732Z,14.40
2023-07-19T08:11:05.978Z,14.30
2023-07-19T08:13:34.551Z,14.20
2023-07-19T08:16:07.385Z,14.20
2023-07-19T08:18:35.683Z,14.20
2023-07-19T08:21:03.813Z,14.10
2023-07-19T08:23:31.977Z,13.80
2023-07-19T08:26:00.616Z,13.70
2023-07-19T08:28:28.783Z,13.80
2023-07-19T08:30:57.126Z,13.90
2023-07-19T08:33:28.880Z,13.90
2023-07-19T08:35:57.088Z,13.80
2023-07-19T08:38:25.177Z,13.80
2023-07-19T08:41:00.834Z,13.70
2023-07-19T08:43:29.757Z,13.80
2023-07-19T08:45:57.963Z,14.10
2023-07-19T08:48:28.362Z,14.20
2023-07-19T08:50:58.170Z,14.40
2023-07-19T08:53:27.173Z,14.60
2023-07-19T08:55:55.880Z,14.60
2023-07-19T08:58:24.016Z,14.40
2023-07-19T09:00:52.629Z,14.10
2023-07-19T09:03:21.020Z,14.00
2023-07-19T09:05:50.464Z,14.10
2023-07-19T09:08:19.123Z,14.30
2023-07-19T09:10:48.142Z,14.50
2023-07-19T09:13:20.650Z,14.80
2023-07-19T09:15:50.196Z,15.20
2023-07-19T09:18:18.549Z,15.30
2023-07-19T09:20:46.789Z,15.00
2023-07-19T09:23:18.931Z,14.80
2023-07-19T09:25:53.998Z,14.50
2023-07-19T09:28:23.946Z,14.20
2023-07-19T09:31:15.822Z,14.00
2023-07-19T09:33:56.108Z,14.10
2023-07-19T09:36:24.631Z,14.50
2023-07-19T09:38:55.704Z,14.80
2023-07-19T09:41:24.226Z,15.10
2023-07-19T09:43:55.112Z,15.40
2023-07-19T09:46:23.773Z,15.70
2023-07-19T09:48:52.146Z,15.80
2023-07-19T09:51:21.798Z,15.90
2023-07-19T09:53:51.246Z,15.40
2023-07-19T09:56:21.079Z,15.70
2023-07-19T09:58:50.342Z,15.70
2023-07-19T10:01:18.550Z,15.40
2023-07-19T10:03:46.690Z,15.20
2023-07-19T10:06:15.898Z,15.00
2023-07-19T10:08:44.062Z,15.10
2023-07-19T10:11:24.566Z,15.40
2023-07-19T10:14:07.064Z,15.70
2023-07-19T10:16:38.882Z,15.90
2023-07-19T10:19:11.350Z,16.10
2023-07-19T10:21:39.540Z,15.70
2023-07-19T10:24:08.403Z,15.40
2023-07-19T10:26:39.212Z,15.20
2023-07-19T10:29:07.369Z,15.40
2023-07-19T10:31:36.701Z,15.60
2023-07-19T10:34:05.524Z,16.00
2023-07-19T10:36:33.652Z,16.50
2023-07-19T10:39:01.707Z,16.90
2023-07-19T10:41:29.793Z,17.10
2023-07-19T10:44:03.967Z,17.20
2023-07-19T10:46:34.297Z,17.00
2023-07-19T10:49:03.355Z,16.90
2023-07-19T10:51:31.606Z,16.40
2023-07-19T10:54:00.378Z,16.10
2023-07-19T10:56:29.733Z,16.30
2023-07-19T10:59:01.711Z,16.40
2023-07-19T11:01:32.065Z,16.70
2023-07-19T11:04:05.808Z,17.00
2023-07-19T11:06:35.658Z,17.30
2023-07-19T11:09:07.584Z,17.50
2023-07-19T11:11:40.839Z,17.30
2023-07-19T11:14:10.440Z,16.80
2023-07-19T11:16:38.557Z,16.90
2023-07-19T11:19:06.663Z,16.80
2023-07-19T11:21:34.797Z,16.60
2023-07-19T11:24:03.928Z,16.60
2023-07-19T11:26:32.136Z,16.80
2023-07-19T11:29:00.941Z,16.90
2023-07-19T11:31:34.850Z,17.20
2023-07-19T11:34:08.811Z,17.30
2023-07-19T11:36:40.963Z,17.50
2023-07-19T11:39:15.497Z,17.70
2023-07-19T11:41:44.696Z,17.90
2023-07-19T11:44:15.480Z,17.50
2023-07-19T11:46:45.071Z,17.20
2023-07-19T11:49:13.297Z,16.70
2023-07-19T11:51:41.506Z,16.40
2023-07-19T11:54:09.725Z,16.00
2023-07-19T11:56:38.302Z,16.20
2023-07-19T11:59:06.425Z,16.70
2023-07-19T12:01:34.666Z,17.00
2023-07-19T12:04:04.958Z,17.60
2023-07-19T12:06:33.387Z,18.00
2023-07-19T12:09:01.629Z,18.30
2023-07-19T12:11:30.308Z,18.00
2023-07-19T12:14:00.995Z,17.80
2023-07-19T12:16:29.235Z,18.00
2023-07-19T12:18:57.433Z,18.30
2023-07-19T12:21:26.944Z,18.20
2023-07-19T12:23:58.310Z,18.30
2023-07-19T12:28:59.320Z,18.60
2023-07-19T12:31:27.652Z,18.20
2023-07-19T12:33:57.943Z,18.30
2023-07-19T12:36:28.119Z,18.30
2023-07-19T12:38:57.661Z,18.30
2023-07-19T12:41:25.825Z,17.80
2023-07-19T12:43:54.035Z,18.10
2023-07-19T12:46:23.505Z,18.50
2023-07-19T12:48:52.258Z,18.40
2023-07-19T12:51:21.049Z,17.40
2023-07-19T12:53:50.572Z,17.00
2023-07-19T12:56:19.680Z,17.00
2023-07-19T12:58:47.935Z,17.00
2023-07-19T13:01:16.412Z,17.20
2023-07-19T13:03:44.707Z,17.50
2023-07-19T13:06:13.063Z,17.50
2023-07-19T13:08:42.090Z,17.10
2023-07-19T13:11:11.589Z,17.20
2023-07-19T13:13:39.787Z,17.60
2023-07-19T13:16:08.157Z,17.80
2023-07-19T13:18:36.436Z,17.50
2023-07-19T13:21:04.811Z,17.00
2023-07-19T13:23:33.535Z,16.90
2023-07-19T13:26:01.659Z,16.40
2023-07-19T13:28:31.244Z,16.20
2023-07-19T13:31:01.335Z,16.20
2023-07-19T13:33:29.896Z,16.20
2023-07-19T13:35:58.513Z,16.10
2023-07-19T13:38:28.805Z,16.10
2023-07-19T13:40:57.124Z,16.00
2023-07-19T13:43:25.359Z,16.10
2023-07-19T13:45:54.949Z,16.20
2023-07-19T13:48:23.181Z,16.10
2023-07-19T13:50:51.348Z,16.10
2023-07-19T13:53:20.862Z,16.30
2023-07-19T13:55:48.981Z,16.50
2023-07-19T13:58:17.360Z,16.50
2023-07-19T14:00:45.599Z,16.50
2023-07-19T14:03:16.071Z,16.50
2023-07-19T14:05:44.299Z,16.70
2023-07-19T14:08:12.393Z,16.80
2023-07-19T14:10:40.558Z,16.80
2023-07-19T14:13:09.112Z,17.20
2023-07-19T14:15:37.358Z,17.20
2023-07-19T14:18:05.563Z,17.10
2023-07-19T14:20:35.101Z,17.10
2023-07-19T14:23:03.523Z,17.50
2023-07-19T14:25:31.742Z,17.70
2023-07-19T14:27:59.868Z,17.60
2023-07-19T14:30:27.995Z,17.50
2023-07-19T14:32:56.158Z,17.70
2023-07-19T14:35:24.474Z,18.20
2023-07-19T14:37:54.046Z,18.10
2023-07-19T14:40:22.174Z,18.20
2023-07-19T14:42:52.206Z,18.00
2023-07-19T14:45:21.014Z,18.00
2023-07-19T14:47:49.338Z,17.80
2023-07-19T14:50:17.750Z,17.80
2023-07-19T14:52:47.921Z,17.80
2023-07-19T14:55:20.708Z,17.80
2023-07-19T14:57:48.842Z,17.70
2023-07-19T15:00:18.539Z,17.70
2023-07-19T15:03:06.343Z,17.40
2023-07-19T15:05:34.482Z,17.50
2023-07-19T15:08:03.625Z,17.80
2023-07-19T15:10:33.183Z,17.80
2023-07-19T15:13:01.392Z,17.90
2023-07-19T15:15:29.456Z,17.80
2023-07-19T15:17:57.854Z,17.80
2023-07-19T15:20:26.153Z,17.60
2023-07-19T15:22:55.893Z,17.60
2023-07-19T15:25:24.360Z,17.50
2023-07-19T15:27:53.926Z,17.30
2023-07-19T15:30:22.024Z,16.90
2023-07-19T15:32:50.300Z,16.60
2023-07-19T15:35:18.486Z,16.30
2023-07-19T15:37:46.604Z,16.40
2023-07-19T15:40:14.992Z,16.40
2023-07-19T15:42:43.118Z,16.20
2023-07-19T15:45:13.350Z,16.30
2023-07-19T15:47:41.610Z,16.50
2023-07-19T15:50:10.613Z,16.40
2023-07-19T15:52:41.960Z,16.50
2023-07-19T15:55:10.988Z,16.70
2023-07-19T15:57:39.132Z,16.80
2023-07-19T16:00:10.143Z,16.60
2023-07-19T16:02:39.895Z,16.40
2023-07-19T16:05:08.540Z,16.30
2023-07-19T16:07:36.873Z,16.10
2023-07-19T16:10:05.499Z,16.10
2023-07-19T16:12:34.761Z,16.20
2023-07-19T16:15:02.853Z,16.10
2023-07-19T16:17:30.971Z,16.00
2023-07-19T16:20:00.507Z,16.10
2023-07-19T16:22:28.779Z,16.10
2023-07-19T16:24:56.955Z,16.10
2023-07-19T16:27:25.269Z,16.40
2023-07-19T16:29:54.292Z,16.20
2023-07-19T16:32:22.481Z,16.20
2023-07-19T16:34:50.594Z,16.20
2023-07-19T16:37:20.064Z,16.20
2023-07-19T16:39:48.176Z,16.10
2023-07-19T16:42:16.330Z,16.20
2023-07-19T16:44:44.444Z,16.40
2023-07-19T16:47:12.537Z,16.50
2023-07-19T16:49:40.863Z,16.30
2023-07-19T16:52:12.853Z,16.10
2023-07-19T16:54:42.576Z,15.90
2023-07-19T16:57:10.973Z,15.70
2023-07-19T16:59:39.038Z,15.70
2023-07-19T17:02:07.188Z,15.60
2023-07-19T17:04:35.422Z,15.50
2023-07-19T17:07:03.583Z,15.40
2023-07-19T17:09:31.726Z,15.30
2023-07-19T17:12:01.376Z,15.20
2023-07-19T17:14:29.515Z,15.20
2023-07-19T17:17:10.913Z,15.30
2023-07-19T17:19:42.411Z,15.40
2023-07-19T17:22:11.510Z,15.20
2023-07-19T17:24:39.662Z,15.10
2023-07-19T17:27:09.375Z,15.00
2023-07-19T17:29:37.502Z,15.00
2023-07-19T17:32:06.448Z,15.10
2023-07-19T17:34:34.652Z,15.10
2023-07-19T17:37:02.870Z,15.20
2023-07-19T17:39:31.020Z,15.80
2023-07-19T17:41:59.181Z,16.60
2023-07-19T17:44:28.671Z,17.10
2023-07-19T17:46:56.787Z,17.10
2023-07-19T17:49:25.019Z,17.20
2023-07-19T17:51:53.314Z,17.60
2023-07-19T17:54:21.442Z,17.40
2023-07-19T17:56:49.569Z,17.70
2023-07-19T17:59:17.664Z,17.60
2023-07-19T18:01:47.146Z,17.70
2023-07-19T18:04:15.316Z,17.40
2023-07-19T18:06:43.436Z,17.30
2023-07-19T18:09:11.605Z,17.00
2023-07-19T18:11:39.812Z,16.70
2023-07-19T18:14:08.429Z,16.50
2023-07-19T18:16:37.033Z,16.10
2023-07-19T18:19:06.807Z,15.60
2023-07-19T18:21:34.970Z,15.20
2023-07-19T18:24:03.157Z,14.90
2023-07-19T18:26:31.435Z,14.80
2023-07-19T18:28:59.588Z,14.60
2023-07-19T18:31:27.808Z,14.50
2023-07-19T18:33:55.981Z,14.40
2023-07-19T18:36:25.453Z,14.30
2023-07-19T18:38:54.154Z,14.20
2023-07-19T18:41:22.589Z,14.20
2023-07-19T18:43:51.254Z,14.10
2023-07-19T18:46:19.324Z,13.90
2023-07-19T18:48:47.439Z,13.90
2023-07-19T18:51:15.498Z,13.80
2023-07-19T18:53:48.723Z,13.70
2023-07-19T18:56:17.050Z,13.60
2023-07-19T18:58:45.889Z,13.50
2023-07-19T19:01:14.181Z,13.40
2023-07-19T19:03:42.413Z,13.40
2023-07-19T19:06:11.585Z,13.30
2023-07-19T19:08:39.740Z,13.20
2023-07-19T19:11:09.235Z,13.10
2023-07-19T19:13:37.379Z,12.90
2023-07-19T19:16:05.947Z,12.80
2023-07-19T19:18:34.027Z,12.80
2023-07-19T19:21:02.200Z,12.80
2023-07-19T19:23:30.554Z,12.70
2023-07-19T19:26:01.125Z,12.70
2023-07-19T19:28:31.384Z,12.70
2023-07-19T19:31:00.411Z,12.70
2023-07-19T19:33:28.552Z,12.70
2023-07-19T19:35:56.686Z,12.60
2023-07-19T19:38:28.129Z,12.50
2023-07-19T19:40:56.984Z,12.40
2023-07-19T19:43:25.317Z,12.30
2023-07-19T19:45:54.984Z,12.20
2023-07-19T19:48:23.326Z,12.10
2023-07-19T19:50:52.066Z,12.00
2023-07-19T19:53:21.411Z,11.80
2023-07-19T19:55:50.074Z,11.60
2023-07-19T19:58:18.716Z,11.40
2023-07-19T20:00:46.850Z,11.30
2023-07-19T20:08:18.371Z,11.00
2023-07-19T20:13:19.891Z,10.80
2023-07-19T20:15:52.571Z,10.70
2023-07-19T20:18:22.435Z,10.50
2023-07-19T20:20:51.895Z,10.40
2023-07-19T20:23:21.494Z,10.30
2023-07-19T20:25:56.073Z,10.20
2023-07-19T20:28:38.012Z,10.20
2023-07-19T20:31:06.734Z,10.30
2023-07-19T20:33:38.639Z,10.20
2023-07-19T20:36:07.451Z,10.10
2023-07-19T20:43:37.789Z,9.70
2023-07-19T20:46:07.611Z,9.70
2023-07-19T20:48:39.871Z,9.70
2023-07-19T20:51:12.386Z,9.60
2023-07-19T20:53:41.159Z,9.50
2023-07-19T20:56:09.244Z,9.40
2023-07-19T20:58:37.378Z,9.40
2023-07-19T21:01:05.861Z,9.30
2023-07-19T21:03:34.578Z,9.20
2023-07-19T21:06:04.412Z,9.20
2023-07-19T21:08:32.613Z,9.10
2023-07-19T21:11:01.113Z,9.00
2023-07-19T21:13:29.257Z,8.90
2023-07-19T21:15:57.427Z,8.90
2023-07-19T21:18:25.837Z,8.90
2023-07-19T21:20:53.914Z,8.80
2023-07-19T21:23:23.334Z,8.80
2023-07-19T21:25:51.432Z,8.70
2023-07-19T21:28:19.565Z,8.60
2023-07-19T21:30:47.758Z,8.60
2023-07-19T21:33:15.921Z,8.50
2023-07-19T21:35:44.017Z,8.40
2023-07-19T21:38:12.467Z,8.40
2023-07-19T21:40:41.921Z,8.30
2023-07-19T21:43:10.091Z,8.30
2023-07-19T21:45:38.198Z,8.30
2023-07-19T21:48:06.905Z,8.30
2023-07-19T21:50:35.256Z,8.30
2023-07-19T21:53:03.373Z,8.30
2023-07-19T21:55:31.496Z,8.20
2023-07-19T21:58:01.042Z,8.20
2023-07-19T22:00:42.697Z,8.10
2023-07-19T22:03:12.911Z,8.10
2023-07-19T22:05:42.024Z,8.10
2023-07-19T22:08:10.272Z,8.10
2023-07-19T22:10:38.604Z,8.10
2023-07-19T22:13:09.528Z,8.10
2023-07-19T22:15:37.969Z,8.10
2023-07-19T22:18:18.033Z,8.00
2023-07-19T22:20:48.139Z,8.10
2023-07-19T22:23:16.931Z,8.10
2023-07-19T22:25:45.877Z,8.00
2023-07-19T22:28:16.702Z,8.00
2023-07-19T22:30:45.970Z,8.00
2023-07-19T22:33:14.463Z,8.00
2023-07-19T22:35:42.838Z,8.00
2023-07-19T22:38:11.056Z,8.00
2023-07-19T22:40:39.636Z,8.00
2023-07-19T22:43:07.857Z,8.00
2023-07-19T22:45:37.253Z,7.90
2023-07-19T22:48:08.459Z,7.80
2023-07-19T22:50:36.741Z,7.80
2023-07-19T22:53:04.923Z,7.80
2023-07-19T22:55:33.149Z,7.70
2023-07-19T22:58:01.302Z,7.60
2023-07-19T23:00:29.469Z,7.50
2023-07-19T23:02:59.005Z,7.50
2023-07-19T23:05:27.324Z,7.40
2023-07-19T23:07:55.772Z,7.40
2023-07-19T23:10:24.298Z,7.40
2023-07-19T23:12:53.489Z,7.50
2023-07-19T23:15:22.002Z,7.50
2023-07-19T23:17:50.337Z,7.60
2023-07-19T23:20:20.056Z,7.60
2023-07-19T23:22:48.368Z,7.50
2023-07-19T23:25:19.378Z,7.30
2023-07-19T23:27:47.520Z,7.30
2023-07-19T23:30:15.869Z,7.10
2023-07-19T23:32:44.262Z,7.10
2023-07-19T23:35:13.022Z,7.10
2023-07-19T23:37:42.492Z,7.20
2023-07-19T23:40:11.325Z,7.20
2023-07-19T23:42:39.472Z,7.20
2023-07-19T23:45:08.432Z,7.10
2023-07-19T23:47:37.010Z,7.20
2023-07-19T23:50:05.762Z,7.20
2023-07-19T23:52:33.820Z,7.20
2023-07-19T23:55:05.153Z,7.30
2023-07-19T23:57:33.503Z,7.50
